RYR5QN EGCC-LDZA
Flight info
| Callsign | RYR5QN |
|---|---|
| Flight time | 2h 11m |
| Altitude | 35000 |
| Route | SONEX L975 DESIG L603 DOLAS DCT NAVPI DCT DODEN DCT NEGIX DCT DINKU DCT BESNI DCT GOMIG DCT RADLY DCT LULUD |
| Aircraft | A320/M-SDE3FGHIRWY/LB1 |
Departure
| Time | 2026-05-07 16:37 |
|---|---|
| Airport | Manchester Airport (EGCC) |
Arrival
| Time | 2026-05-07 18:48 |
|---|---|
| Airport | Zagreb Franjo Tuđman International Airport (LDZA) |
| Time | Latitude | Longitude | Altitude | Speed | Heading |
|---|---|---|---|---|---|
| 2026-05-07 16:07 | 53.35914 | -2.27127 | 232 ft | 0 kts | 65° |
| 2026-05-07 16:23 | 53.35911 | -2.27135 | 232 ft | 2 kts | 66° |
| 2026-05-07 16:23 | 53.35905 | -2.27157 | 232 ft | 2 kts | 65° |
| 2026-05-07 16:24 | 53.35901 | -2.27182 | 232 ft | 2 kts | 93° |
| 2026-05-07 16:24 | 53.35904 | -2.27206 | 232 ft | 2 kts | 118° |
| 2026-05-07 16:24 | 53.35914 | -2.27225 | 232 ft | 2 kts | 145° |
| 2026-05-07 16:24 | 53.35925 | -2.27235 | 232 ft | 0 kts | 168° |
| 2026-05-07 16:25 | 53.35932 | -2.27236 | 232 ft | 1 kts | 173° |
| 2026-05-07 16:25 | 53.35933 | -2.27237 | 232 ft | 0 kts | 172° |
| 2026-05-07 16:28 | 53.35928 | -2.27235 | 232 ft | 2 kts | 172° |
| 2026-05-07 16:28 | 53.35894 | -2.27226 | 232 ft | 8 kts | 171° |
| 2026-05-07 16:28 | 53.35833 | -2.27232 | 232 ft | 9 kts | 219° |
| 2026-05-07 16:28 | 53.35781 | -2.27291 | 232 ft | 10 kts | 174° |
| 2026-05-07 16:29 | 53.35738 | -2.27241 | 232 ft | 4 kts | 139° |
| 2026-05-07 16:29 | 53.35711 | -2.27203 | 232 ft | 4 kts | 142° |
| 2026-05-07 16:29 | 53.35708 | -2.27198 | 232 ft | 0 kts | 142° |
| 2026-05-07 16:31 | 53.35702 | -2.27190 | 232 ft | 4 kts | 142° |
| 2026-05-07 16:31 | 53.35640 | -2.27108 | 232 ft | 17 kts | 141° |
| 2026-05-07 16:31 | 53.35544 | -2.26978 | 232 ft | 18 kts | 141° |
| 2026-05-07 16:32 | 53.35445 | -2.26899 | 232 ft | 15 kts | 204° |
| 2026-05-07 16:32 | 53.35374 | -2.27033 | 232 ft | 16 kts | 231° |
| 2026-05-07 16:32 | 53.35300 | -2.27185 | 232 ft | 17 kts | 231° |
| 2026-05-07 16:32 | 53.35219 | -2.27352 | 232 ft | 18 kts | 231° |
| 2026-05-07 16:33 | 53.35135 | -2.27523 | 232 ft | 19 kts | 231° |
| 2026-05-07 16:33 | 53.35050 | -2.27701 | 232 ft | 19 kts | 232° |
| 2026-05-07 16:33 | 53.34965 | -2.27877 | 232 ft | 14 kts | 231° |
| 2026-05-07 16:33 | 53.34882 | -2.27857 | 232 ft | 14 kts | 141° |
| 2026-05-07 16:34 | 53.34788 | -2.27812 | 232 ft | 14 kts | 196° |
| 2026-05-07 16:34 | 53.34749 | -2.27855 | 232 ft | 0 kts | 229° |
| 2026-05-07 16:36 | 53.34690 | -2.27975 | 232 ft | 44 kts | 231° |
| 2026-05-07 16:36 | 53.34348 | -2.28688 | 232 ft | 110 kts | 231° |
| 2026-05-07 16:36 | 53.33742 | -2.29914 | 308 ft | 154 kts | 231° |
| 2026-05-07 16:36 | 53.33067 | -2.31328 | 837 ft | 157 kts | 231° |
| 2026-05-07 16:37 | 53.32422 | -2.32733 | 1520 ft | 152 kts | 230° |
| 2026-05-07 16:37 | 53.31893 | -2.34176 | 2153 ft | 150 kts | 250° |
| 2026-05-07 16:37 | 53.31953 | -2.35956 | 2503 ft | 164 kts | 293° |
| 2026-05-07 16:37 | 53.32582 | -2.37651 | 2827 ft | 179 kts | 301° |
| 2026-05-07 16:38 | 53.33279 | -2.39461 | 3141 ft | 194 kts | 301° |
| 2026-05-07 16:38 | 53.34242 | -2.41123 | 3446 ft | 213 kts | 330° |
| 2026-05-07 16:38 | 53.35692 | -2.41972 | 3831 ft | 228 kts | 346° |
| 2026-05-07 16:38 | 53.37301 | -2.42600 | 4129 ft | 249 kts | 346° |
| 2026-05-07 16:39 | 53.38989 | -2.43316 | 4691 ft | 248 kts | 345° |
| 2026-05-07 16:39 | 53.40644 | -2.44102 | 4978 ft | 250 kts | 342° |
| 2026-05-07 16:39 | 53.42318 | -2.44966 | 5490 ft | 256 kts | 341° |
| 2026-05-07 16:39 | 53.44023 | -2.45495 | 6341 ft | 255 kts | 5° |
| 2026-05-07 16:40 | 53.45655 | -2.44455 | 7116 ft | 255 kts | 42° |
| 2026-05-07 16:40 | 53.46682 | -2.42140 | 7855 ft | 253 kts | 69° |
| 2026-05-07 16:40 | 53.47271 | -2.39276 | 8390 ft | 264 kts | 79° |
| 2026-05-07 16:40 | 53.47681 | -2.36194 | 8791 ft | 281 kts | 82° |
| 2026-05-07 16:41 | 53.48051 | -2.32928 | 9317 ft | 292 kts | 82° |
| 2026-05-07 16:41 | 53.48424 | -2.29593 | 10069 ft | 296 kts | 82° |
| 2026-05-07 16:41 | 53.48811 | -2.26159 | 10647 ft | 306 kts | 82° |
| 2026-05-07 16:41 | 53.49219 | -2.22577 | 10979 ft | 323 kts | 82° |
| 2026-05-07 16:42 | 53.49632 | -2.18747 | 11303 ft | 340 kts | 82° |
| 2026-05-07 16:42 | 53.50050 | -2.14766 | 11686 ft | 354 kts | 82° |
| 2026-05-07 16:42 | 53.50476 | -2.10705 | 12282 ft | 359 kts | 82° |
| 2026-05-07 16:42 | 53.50909 | -2.06583 | 12952 ft | 361 kts | 82° |
| 2026-05-07 16:43 | 53.51339 | -2.02477 | 13584 ft | 364 kts | 82° |
| 2026-05-07 16:43 | 53.51779 | -1.98263 | 14203 ft | 367 kts | 82° |
| 2026-05-07 16:43 | 53.52213 | -1.94076 | 14798 ft | 370 kts | 83° |
| 2026-05-07 16:43 | 53.52393 | -1.89756 | 15374 ft | 370 kts | 94° |
| 2026-05-07 16:44 | 53.52074 | -1.85530 | 15933 ft | 371 kts | 105° |
| 2026-05-07 16:44 | 53.51390 | -1.81343 | 16488 ft | 373 kts | 108° |
| 2026-05-07 16:44 | 53.50636 | -1.77177 | 17010 ft | 377 kts | 109° |
| 2026-05-07 16:44 | 53.49874 | -1.72986 | 17526 ft | 380 kts | 109° |
| 2026-05-07 16:45 | 53.49109 | -1.68730 | 18032 ft | 383 kts | 108° |
| 2026-05-07 16:45 | 53.48346 | -1.64454 | 18523 ft | 386 kts | 108° |
| 2026-05-07 16:45 | 53.47579 | -1.60135 | 18998 ft | 389 kts | 108° |
| 2026-05-07 16:45 | 53.46801 | -1.55761 | 19477 ft | 392 kts | 108° |
| 2026-05-07 16:46 | 53.46022 | -1.51415 | 19945 ft | 394 kts | 108° |
| 2026-05-07 16:46 | 53.45235 | -1.47026 | 20403 ft | 397 kts | 108° |
| 2026-05-07 16:46 | 53.44442 | -1.42611 | 20851 ft | 399 kts | 108° |
| 2026-05-07 16:46 | 53.43638 | -1.38148 | 21295 ft | 402 kts | 108° |
| 2026-05-07 16:47 | 53.42827 | -1.33658 | 21739 ft | 404 kts | 109° |
| 2026-05-07 16:47 | 53.42010 | -1.29155 | 22165 ft | 406 kts | 109° |
| 2026-05-07 16:47 | 53.41190 | -1.24632 | 22577 ft | 409 kts | 109° |
| 2026-05-07 16:47 | 53.40369 | -1.20110 | 22980 ft | 411 kts | 109° |
| 2026-05-07 16:48 | 53.39537 | -1.15545 | 23376 ft | 413 kts | 109° |
| 2026-05-07 16:48 | 53.38689 | -1.10907 | 23766 ft | 415 kts | 109° |
| 2026-05-07 16:48 | 53.37848 | -1.06320 | 24147 ft | 417 kts | 109° |
| 2026-05-07 16:48 | 53.36992 | -1.01658 | 24528 ft | 419 kts | 109° |
| 2026-05-07 16:49 | 53.36138 | -0.97015 | 24913 ft | 421 kts | 109° |
| 2026-05-07 16:49 | 53.35278 | -0.92353 | 25297 ft | 422 kts | 109° |
| 2026-05-07 16:49 | 53.34412 | -0.87674 | 25660 ft | 424 kts | 108° |
| 2026-05-07 16:49 | 53.33542 | -0.82980 | 26003 ft | 426 kts | 108° |
| 2026-05-07 16:50 | 53.32660 | -0.78232 | 26349 ft | 427 kts | 108° |
| 2026-05-07 16:50 | 53.31789 | -0.73559 | 26687 ft | 428 kts | 108° |
| 2026-05-07 16:50 | 53.30895 | -0.68781 | 27022 ft | 430 kts | 108° |
| 2026-05-07 16:50 | 53.30012 | -0.64068 | 27333 ft | 431 kts | 108° |
| 2026-05-07 16:51 | 53.29117 | -0.59298 | 27654 ft | 432 kts | 108° |
| 2026-05-07 16:51 | 53.28218 | -0.54523 | 27960 ft | 433 kts | 108° |
| 2026-05-07 16:51 | 53.27311 | -0.49719 | 28252 ft | 434 kts | 108° |
| 2026-05-07 16:51 | 53.26398 | -0.44904 | 28540 ft | 435 kts | 108° |
| 2026-05-07 16:52 | 53.25492 | -0.40125 | 28812 ft | 437 kts | 108° |
| 2026-05-07 16:52 | 53.24577 | -0.35315 | 29076 ft | 438 kts | 108° |
| 2026-05-07 16:52 | 53.23654 | -0.30473 | 29322 ft | 439 kts | 109° |
| 2026-05-07 16:52 | 53.22721 | -0.25589 | 29579 ft | 440 kts | 109° |
| 2026-05-07 16:53 | 53.21797 | -0.20773 | 29813 ft | 441 kts | 109° |
| 2026-05-07 16:53 | 53.20860 | -0.15894 | 30026 ft | 442 kts | 109° |
| 2026-05-07 16:53 | 53.19923 | -0.11031 | 30283 ft | 442 kts | 109° |
| 2026-05-07 16:53 | 53.18989 | -0.06200 | 30589 ft | 440 kts | 109° |
| 2026-05-07 16:54 | 53.18064 | -0.01420 | 30917 ft | 438 kts | 109° |
| 2026-05-07 16:54 | 53.17123 | 0.03414 | 31216 ft | 436 kts | 109° |
| 2026-05-07 16:54 | 53.16198 | 0.08162 | 31464 ft | 436 kts | 109° |
| 2026-05-07 16:54 | 53.15263 | 0.12950 | 31699 ft | 435 kts | 109° |
| 2026-05-07 16:55 | 53.14330 | 0.17719 | 31949 ft | 434 kts | 109° |
| 2026-05-07 16:55 | 53.13405 | 0.22435 | 32185 ft | 434 kts | 109° |
| 2026-05-07 16:55 | 53.12460 | 0.27240 | 32416 ft | 433 kts | 109° |
| 2026-05-07 16:55 | 53.11531 | 0.31954 | 32635 ft | 433 kts | 109° |
| 2026-05-07 16:56 | 53.10598 | 0.36677 | 32847 ft | 433 kts | 109° |
| 2026-05-07 16:56 | 53.09658 | 0.41425 | 33057 ft | 432 kts | 109° |
| 2026-05-07 16:56 | 53.07778 | 0.50885 | 33433 ft | 432 kts | 109° |
| 2026-05-07 16:57 | 53.06835 | 0.55617 | 33592 ft | 433 kts | 109° |
| 2026-05-07 16:57 | 53.05894 | 0.60328 | 33751 ft | 433 kts | 109° |
| 2026-05-07 16:57 | 53.04950 | 0.65040 | 33896 ft | 433 kts | 109° |
| 2026-05-07 16:57 | 53.03995 | 0.69791 | 34024 ft | 434 kts | 109° |
| 2026-05-07 16:58 | 53.03032 | 0.74581 | 34152 ft | 435 kts | 109° |
| 2026-05-07 16:58 | 53.02075 | 0.79322 | 34273 ft | 436 kts | 109° |
| 2026-05-07 16:58 | 53.01117 | 0.84058 | 34400 ft | 436 kts | 109° |
| 2026-05-07 16:58 | 53.00153 | 0.88814 | 34522 ft | 437 kts | 109° |
| 2026-05-07 16:59 | 52.99184 | 0.93571 | 34632 ft | 438 kts | 109° |
| 2026-05-07 16:59 | 52.98207 | 0.98360 | 34743 ft | 438 kts | 109° |
| 2026-05-07 16:59 | 52.97222 | 1.03055 | 34859 ft | 438 kts | 110° |
| 2026-05-07 16:59 | 52.96149 | 1.07837 | 34970 ft | 438 kts | 111° |
| 2026-05-07 17:00 | 52.94004 | 1.17236 | 35062 ft | 440 kts | 111° |
| 2026-05-07 17:00 | 52.91841 | 1.26704 | 35070 ft | 440 kts | 111° |
| 2026-05-07 17:01 | 52.89683 | 1.36153 | 35047 ft | 441 kts | 111° |
| 2026-05-07 17:01 | 52.87524 | 1.45581 | 35076 ft | 441 kts | 111° |
| 2026-05-07 17:02 | 52.85356 | 1.55011 | 35070 ft | 441 kts | 111° |
| 2026-05-07 17:02 | 52.83172 | 1.64456 | 35069 ft | 441 kts | 111° |
| 2026-05-07 17:03 | 52.80973 | 1.73935 | 35088 ft | 442 kts | 112° |
| 2026-05-07 17:03 | 52.78763 | 1.83414 | 35074 ft | 442 kts | 112° |
| 2026-05-07 17:04 | 52.76564 | 1.92813 | 35071 ft | 442 kts | 112° |
| 2026-05-07 17:04 | 52.74347 | 2.02241 | 35064 ft | 442 kts | 112° |
| 2026-05-07 17:05 | 52.72120 | 2.11679 | 35071 ft | 442 kts | 112° |
| 2026-05-07 17:05 | 52.69889 | 2.21083 | 35064 ft | 443 kts | 112° |
| 2026-05-07 17:06 | 52.67643 | 2.30514 | 35070 ft | 445 kts | 112° |
| 2026-05-07 17:06 | 52.65391 | 2.39925 | 35068 ft | 444 kts | 112° |
| 2026-05-07 17:07 | 52.63123 | 2.49372 | 35062 ft | 446 kts | 112° |
| 2026-05-07 17:07 | 52.60846 | 2.58808 | 35067 ft | 446 kts | 112° |
| 2026-05-07 17:08 | 52.58544 | 2.68304 | 35068 ft | 446 kts | 113° |
| 2026-05-07 17:08 | 52.56248 | 2.77739 | 35067 ft | 447 kts | 113° |
| 2026-05-07 17:09 | 52.53699 | 2.87005 | 35069 ft | 445 kts | 118° |
| 2026-05-07 17:09 | 52.50750 | 2.95881 | 35065 ft | 447 kts | 120° |
| 2026-05-07 17:10 | 52.47742 | 3.04844 | 35067 ft | 450 kts | 120° |
| 2026-05-07 17:10 | 52.44729 | 3.13795 | 35073 ft | 452 kts | 120° |
| 2026-05-07 17:11 | 52.41713 | 3.22721 | 35068 ft | 452 kts | 120° |
| 2026-05-07 17:11 | 52.38659 | 3.31734 | 35075 ft | 454 kts | 120° |
| 2026-05-07 17:12 | 52.35593 | 3.40750 | 35076 ft | 455 kts | 120° |
| 2026-05-07 17:12 | 52.32522 | 3.49743 | 35072 ft | 456 kts | 120° |
| 2026-05-07 17:13 | 52.29444 | 3.58726 | 35071 ft | 458 kts | 120° |
| 2026-05-07 17:13 | 52.26326 | 3.67797 | 35065 ft | 458 kts | 121° |
| 2026-05-07 17:14 | 52.23206 | 3.76838 | 35072 ft | 458 kts | 121° |
| 2026-05-07 17:14 | 52.20087 | 3.85842 | 35070 ft | 460 kts | 121° |
| 2026-05-07 17:15 | 52.16942 | 3.94893 | 35070 ft | 460 kts | 121° |
| 2026-05-07 17:15 | 52.13803 | 4.03889 | 35068 ft | 461 kts | 121° |
| 2026-05-07 17:16 | 52.10619 | 4.12984 | 35068 ft | 462 kts | 121° |
| 2026-05-07 17:16 | 52.07451 | 4.22008 | 35066 ft | 461 kts | 121° |
| 2026-05-07 17:17 | 52.04270 | 4.31032 | 35064 ft | 461 kts | 121° |
| 2026-05-07 17:17 | 52.01086 | 4.40026 | 35060 ft | 461 kts | 121° |
| 2026-05-07 17:18 | 51.97895 | 4.49013 | 35057 ft | 461 kts | 121° |
| 2026-05-07 17:18 | 51.94676 | 4.58043 | 35054 ft | 462 kts | 121° |
| 2026-05-07 17:19 | 51.91457 | 4.67041 | 35058 ft | 462 kts | 122° |
| 2026-05-07 17:19 | 51.88219 | 4.76063 | 35056 ft | 462 kts | 122° |
| 2026-05-07 17:20 | 51.84982 | 4.85050 | 35047 ft | 462 kts | 122° |
| 2026-05-07 17:20 | 51.81702 | 4.94123 | 35052 ft | 462 kts | 122° |
| 2026-05-07 17:21 | 51.78462 | 5.03052 | 35052 ft | 462 kts | 122° |
| 2026-05-07 17:21 | 51.75216 | 5.11967 | 35051 ft | 462 kts | 122° |
| 2026-05-07 17:22 | 51.71966 | 5.20860 | 35050 ft | 462 kts | 122° |
| 2026-05-07 17:22 | 51.68713 | 5.29730 | 35052 ft | 463 kts | 122° |
| 2026-05-07 17:23 | 51.65436 | 5.38636 | 35052 ft | 463 kts | 121° |
| 2026-05-07 17:23 | 51.62176 | 5.47468 | 35052 ft | 462 kts | 121° |
| 2026-05-07 17:24 | 51.58886 | 5.56348 | 35054 ft | 462 kts | 121° |
| 2026-05-07 17:24 | 51.55604 | 5.65174 | 35057 ft | 462 kts | 122° |
| 2026-05-07 17:25 | 51.52308 | 5.74009 | 35051 ft | 462 kts | 122° |
| 2026-05-07 17:25 | 51.49011 | 5.82818 | 35050 ft | 462 kts | 122° |
| 2026-05-07 17:26 | 51.45717 | 5.91589 | 35053 ft | 462 kts | 122° |
| 2026-05-07 17:26 | 51.42399 | 6.00388 | 35046 ft | 462 kts | 122° |
| 2026-05-07 17:27 | 51.39076 | 6.09174 | 35047 ft | 463 kts | 122° |
| 2026-05-07 17:27 | 51.35739 | 6.17963 | 35040 ft | 463 kts | 122° |
| 2026-05-07 17:28 | 51.32403 | 6.26722 | 35035 ft | 462 kts | 122° |
| 2026-05-07 17:28 | 51.29063 | 6.35463 | 35034 ft | 463 kts | 122° |
| 2026-05-07 17:29 | 51.25717 | 6.44188 | 34782 ft | 464 kts | 122° |
| 2026-05-07 17:29 | 51.24029 | 6.48580 | 34537 ft | 462 kts | 122° |
| 2026-05-07 17:29 | 51.22366 | 6.52900 | 34148 ft | 462 kts | 122° |
| 2026-05-07 17:30 | 51.20663 | 6.57313 | 34037 ft | 465 kts | 122° |
| 2026-05-07 17:30 | 51.18968 | 6.61700 | 34030 ft | 466 kts | 122° |
| 2026-05-07 17:30 | 51.15576 | 6.70456 | 34028 ft | 466 kts | 123° |
| 2026-05-07 17:31 | 51.12171 | 6.79217 | 34030 ft | 466 kts | 123° |
| 2026-05-07 17:31 | 51.08744 | 6.88002 | 34032 ft | 466 kts | 123° |
| 2026-05-07 17:32 | 51.05341 | 6.96696 | 34048 ft | 468 kts | 123° |
| 2026-05-07 17:32 | 51.03622 | 7.01077 | 34192 ft | 467 kts | 122° |
| 2026-05-07 17:32 | 51.02465 | 7.04023 | 34321 ft | 466 kts | 122° |
| 2026-05-07 17:33 | 51.00192 | 7.09798 | 34547 ft | 466 kts | 122° |
| 2026-05-07 17:33 | 50.98476 | 7.14149 | 34682 ft | 465 kts | 122° |
| 2026-05-07 17:33 | 50.96780 | 7.18445 | 34804 ft | 466 kts | 122° |
| 2026-05-07 17:33 | 50.95050 | 7.22818 | 34910 ft | 466 kts | 122° |
| 2026-05-07 17:34 | 50.93342 | 7.27131 | 35011 ft | 466 kts | 122° |
| 2026-05-07 17:34 | 50.91631 | 7.31441 | 35024 ft | 467 kts | 122° |
| 2026-05-07 17:34 | 50.88175 | 7.40125 | 35030 ft | 467 kts | 122° |
| 2026-05-07 17:35 | 50.84562 | 7.48638 | 35030 ft | 466 kts | 129° |
| 2026-05-07 17:35 | 50.80416 | 7.56478 | 35024 ft | 467 kts | 130° |
| 2026-05-07 17:36 | 50.76241 | 7.64271 | 35022 ft | 467 kts | 130° |
| 2026-05-07 17:36 | 50.72068 | 7.72112 | 35018 ft | 467 kts | 130° |
| 2026-05-07 17:37 | 50.67901 | 7.79951 | 35022 ft | 467 kts | 130° |
| 2026-05-07 17:37 | 50.63734 | 7.87784 | 35024 ft | 468 kts | 130° |
| 2026-05-07 17:38 | 50.59577 | 7.95575 | 35025 ft | 468 kts | 130° |
| 2026-05-07 17:38 | 50.55388 | 8.03401 | 35022 ft | 468 kts | 130° |
| 2026-05-07 17:39 | 50.51210 | 8.11185 | 35010 ft | 468 kts | 130° |
| 2026-05-07 17:39 | 50.47006 | 8.18994 | 35015 ft | 468 kts | 130° |
| 2026-05-07 17:40 | 50.42802 | 8.26780 | 35010 ft | 469 kts | 130° |
| 2026-05-07 17:40 | 50.38621 | 8.34500 | 35015 ft | 469 kts | 130° |
| 2026-05-07 17:41 | 50.34393 | 8.42284 | 35012 ft | 469 kts | 130° |
| 2026-05-07 17:41 | 50.30200 | 8.49981 | 35002 ft | 469 kts | 130° |
| 2026-05-07 17:42 | 50.25969 | 8.57723 | 34998 ft | 470 kts | 130° |
| 2026-05-07 17:42 | 50.21702 | 8.65507 | 35007 ft | 470 kts | 131° |
| 2026-05-07 17:43 | 50.17466 | 8.73212 | 35013 ft | 469 kts | 131° |
| 2026-05-07 17:43 | 50.13241 | 8.80873 | 35017 ft | 469 kts | 131° |
| 2026-05-07 17:44 | 50.08968 | 8.88600 | 35009 ft | 469 kts | 131° |
| 2026-05-07 17:44 | 50.04726 | 8.96248 | 35005 ft | 470 kts | 131° |
| 2026-05-07 17:45 | 50.00473 | 9.03896 | 35015 ft | 470 kts | 131° |
| 2026-05-07 17:45 | 49.96217 | 9.11520 | 35011 ft | 470 kts | 131° |
| 2026-05-07 17:46 | 49.91942 | 9.19161 | 35012 ft | 470 kts | 131° |
| 2026-05-07 17:46 | 49.87662 | 9.26784 | 35017 ft | 470 kts | 131° |
| 2026-05-07 17:47 | 49.83359 | 9.34430 | 35009 ft | 470 kts | 131° |
| 2026-05-07 17:47 | 49.79068 | 9.42029 | 35013 ft | 470 kts | 131° |
| 2026-05-07 17:48 | 49.74770 | 9.49620 | 35011 ft | 471 kts | 131° |
| 2026-05-07 17:48 | 49.70469 | 9.57194 | 35010 ft | 471 kts | 131° |
| 2026-05-07 17:49 | 49.66171 | 9.64742 | 35010 ft | 471 kts | 132° |
| 2026-05-07 17:49 | 49.61830 | 9.72342 | 35008 ft | 470 kts | 133° |
| 2026-05-07 17:50 | 49.57526 | 9.79857 | 35016 ft | 470 kts | 133° |
| 2026-05-07 17:50 | 49.53199 | 9.87386 | 35019 ft | 470 kts | 133° |
| 2026-05-07 17:51 | 49.48885 | 9.94871 | 35016 ft | 471 kts | 133° |
| 2026-05-07 17:51 | 49.44560 | 10.02357 | 35020 ft | 472 kts | 133° |
| 2026-05-07 17:52 | 49.40192 | 10.09895 | 35024 ft | 472 kts | 133° |
| 2026-05-07 17:52 | 49.35852 | 10.17365 | 35026 ft | 473 kts | 133° |
| 2026-05-07 17:53 | 49.31487 | 10.24858 | 35022 ft | 472 kts | 133° |
| 2026-05-07 17:53 | 49.27116 | 10.32337 | 35022 ft | 472 kts | 133° |
| 2026-05-07 17:54 | 49.22681 | 10.39696 | 35026 ft | 471 kts | 136° |
| 2026-05-07 17:54 | 49.18006 | 10.46653 | 35024 ft | 471 kts | 137° |
| 2026-05-07 17:55 | 49.13349 | 10.53563 | 35019 ft | 471 kts | 137° |
| 2026-05-07 17:55 | 49.08638 | 10.60538 | 35023 ft | 472 kts | 137° |
| 2026-05-07 17:56 | 49.03933 | 10.67486 | 35017 ft | 472 kts | 138° |
| 2026-05-07 17:56 | 48.99232 | 10.74409 | 35016 ft | 471 kts | 138° |
| 2026-05-07 17:57 | 48.95314 | 10.80163 | 35010 ft | 471 kts | 138° |
| 2026-05-07 17:57 | 48.89828 | 10.88198 | 35010 ft | 472 kts | 138° |
| 2026-05-07 17:58 | 48.85109 | 10.95089 | 35014 ft | 472 kts | 138° |
| 2026-05-07 17:58 | 48.80457 | 11.01871 | 35010 ft | 472 kts | 138° |
| 2026-05-07 17:59 | 48.75720 | 11.08752 | 35018 ft | 472 kts | 139° |
| 2026-05-07 17:59 | 48.70982 | 11.15622 | 35021 ft | 472 kts | 138° |
| 2026-05-07 18:00 | 48.66544 | 11.22878 | 35018 ft | 474 kts | 131° |
| 2026-05-07 18:00 | 48.62667 | 11.30866 | 35021 ft | 476 kts | 124° |
| 2026-05-07 18:01 | 48.59383 | 11.39561 | 35020 ft | 479 kts | 119° |
| 2026-05-07 18:01 | 48.56345 | 11.48481 | 35021 ft | 479 kts | 118° |
| 2026-05-07 18:02 | 48.51783 | 11.61799 | 35017 ft | 479 kts | 119° |
| 2026-05-07 18:03 | 48.48703 | 11.70728 | 35024 ft | 479 kts | 120° |
| 2026-05-07 18:03 | 48.45640 | 11.79568 | 35027 ft | 479 kts | 120° |
| 2026-05-07 18:04 | 48.42565 | 11.88409 | 35032 ft | 479 kts | 120° |
| 2026-05-07 18:04 | 48.39518 | 11.97143 | 35032 ft | 479 kts | 120° |
| 2026-05-07 18:05 | 48.36422 | 12.05987 | 35024 ft | 479 kts | 120° |
| 2026-05-07 18:05 | 48.33340 | 12.14760 | 35013 ft | 479 kts | 120° |
| 2026-05-07 18:06 | 48.30220 | 12.23617 | 35015 ft | 480 kts | 120° |
| 2026-05-07 18:06 | 48.27103 | 12.32433 | 35020 ft | 480 kts | 120° |
| 2026-05-07 18:07 | 48.23975 | 12.41249 | 35019 ft | 480 kts | 120° |
| 2026-05-07 18:07 | 48.20854 | 12.50017 | 35025 ft | 481 kts | 120° |
| 2026-05-07 18:08 | 48.17688 | 12.58877 | 35019 ft | 481 kts | 120° |
| 2026-05-07 18:08 | 48.14390 | 12.67506 | 35018 ft | 480 kts | 126° |
| 2026-05-07 18:09 | 48.10468 | 12.75531 | 35022 ft | 477 kts | 133° |
| 2026-05-07 18:09 | 48.06202 | 12.83024 | 35022 ft | 476 kts | 134° |
| 2026-05-07 18:10 | 48.01911 | 12.90529 | 35018 ft | 476 kts | 134° |
| 2026-05-07 18:10 | 47.97609 | 12.98048 | 35022 ft | 476 kts | 134° |
| 2026-05-07 18:11 | 47.93321 | 13.05531 | 35029 ft | 476 kts | 134° |
| 2026-05-07 18:11 | 47.89016 | 13.13025 | 35033 ft | 477 kts | 134° |
| 2026-05-07 18:12 | 47.84721 | 13.20482 | 35036 ft | 478 kts | 134° |
| 2026-05-07 18:12 | 47.80386 | 13.27989 | 35039 ft | 478 kts | 134° |
| 2026-05-07 18:13 | 47.76081 | 13.35423 | 35041 ft | 478 kts | 134° |
| 2026-05-07 18:13 | 47.71753 | 13.42870 | 35043 ft | 478 kts | 134° |
| 2026-05-07 18:14 | 47.67415 | 13.50320 | 35038 ft | 478 kts | 134° |
| 2026-05-07 18:14 | 47.63081 | 13.57736 | 35041 ft | 478 kts | 134° |
| 2026-05-07 18:15 | 47.58767 | 13.65101 | 35031 ft | 478 kts | 135° |
| 2026-05-07 18:15 | 47.54390 | 13.72555 | 35022 ft | 478 kts | 135° |
| 2026-05-07 18:16 | 47.50028 | 13.79963 | 35009 ft | 478 kts | 135° |
| 2026-05-07 18:16 | 47.45675 | 13.87331 | 35016 ft | 478 kts | 135° |
| 2026-05-07 18:17 | 47.41318 | 13.94690 | 35014 ft | 478 kts | 135° |
| 2026-05-07 18:17 | 47.36927 | 14.02085 | 35024 ft | 478 kts | 135° |
| 2026-05-07 18:18 | 47.32561 | 14.09416 | 35024 ft | 479 kts | 135° |
| 2026-05-07 18:18 | 47.28177 | 14.16760 | 35014 ft | 479 kts | 135° |
| 2026-05-07 18:19 | 47.23780 | 14.24103 | 35016 ft | 479 kts | 135° |
| 2026-05-07 18:19 | 47.19391 | 14.31414 | 35022 ft | 479 kts | 135° |
| 2026-05-07 18:20 | 47.14991 | 14.38727 | 35026 ft | 479 kts | 136° |
| 2026-05-07 18:20 | 47.10583 | 14.46030 | 35020 ft | 479 kts | 135° |
| 2026-05-07 18:21 | 47.06192 | 14.53285 | 35016 ft | 479 kts | 135° |
| 2026-05-07 18:21 | 47.01756 | 14.60592 | 35014 ft | 480 kts | 136° |
| 2026-05-07 18:22 | 46.97339 | 14.67853 | 34918 ft | 478 kts | 136° |
| 2026-05-07 18:22 | 46.96609 | 14.69051 | 35099 ft | 478 kts | 136° |
| 2026-05-07 18:22 | 46.92934 | 14.75077 | 34992 ft | 479 kts | 136° |
| 2026-05-07 18:23 | 46.88502 | 14.82320 | 35004 ft | 479 kts | 137° |
| 2026-05-07 18:23 | 46.84076 | 14.89537 | 35008 ft | 478 kts | 137° |
| 2026-05-07 18:24 | 46.79641 | 14.96748 | 34992 ft | 478 kts | 137° |
| 2026-05-07 18:24 | 46.75180 | 15.03985 | 34612 ft | 482 kts | 137° |
| 2026-05-07 18:24 | 46.72954 | 15.07586 | 33854 ft | 485 kts | 137° |
| 2026-05-07 18:25 | 46.70717 | 15.11201 | 33029 ft | 487 kts | 137° |
| 2026-05-07 18:25 | 46.68445 | 15.14839 | 32222 ft | 486 kts | 139° |
| 2026-05-07 18:25 | 46.65986 | 15.18167 | 31417 ft | 481 kts | 146° |
| 2026-05-07 18:25 | 46.63326 | 15.21009 | 30585 ft | 476 kts | 153° |
| 2026-05-07 18:26 | 46.60504 | 15.23356 | 29668 ft | 472 kts | 159° |
| 2026-05-07 18:26 | 46.57525 | 15.25265 | 29017 ft | 462 kts | 163° |
| 2026-05-07 18:26 | 46.54601 | 15.27008 | 28457 ft | 455 kts | 163° |
| 2026-05-07 18:26 | 46.51685 | 15.28728 | 27926 ft | 448 kts | 163° |
| 2026-05-07 18:27 | 46.48846 | 15.30401 | 27400 ft | 442 kts | 163° |
| 2026-05-07 18:27 | 46.46007 | 15.32078 | 26873 ft | 436 kts | 163° |
| 2026-05-07 18:27 | 46.43217 | 15.33732 | 26327 ft | 431 kts | 163° |
| 2026-05-07 18:27 | 46.41399 | 15.34808 | 25974 ft | 427 kts | 163° |
| 2026-05-07 18:28 | 46.37780 | 15.36952 | 25288 ft | 421 kts | 163° |
| 2026-05-07 18:28 | 46.35073 | 15.38552 | 24771 ft | 416 kts | 162° |
| 2026-05-07 18:28 | 46.32439 | 15.40109 | 24237 ft | 412 kts | 162° |
| 2026-05-07 18:28 | 46.29793 | 15.41676 | 23739 ft | 407 kts | 163° |
| 2026-05-07 18:29 | 46.27187 | 15.43216 | 23216 ft | 403 kts | 162° |
| 2026-05-07 18:29 | 46.24637 | 15.44718 | 22730 ft | 398 kts | 162° |
| 2026-05-07 18:29 | 46.22076 | 15.46226 | 22252 ft | 394 kts | 162° |
| 2026-05-07 18:29 | 46.19579 | 15.47700 | 21762 ft | 390 kts | 162° |
| 2026-05-07 18:30 | 46.17075 | 15.49171 | 21275 ft | 386 kts | 162° |
| 2026-05-07 18:30 | 46.14603 | 15.50623 | 20801 ft | 383 kts | 162° |
| 2026-05-07 18:30 | 46.12155 | 15.52059 | 20312 ft | 380 kts | 162° |
| 2026-05-07 18:30 | 46.09726 | 15.53483 | 19833 ft | 377 kts | 162° |
| 2026-05-07 18:31 | 46.07308 | 15.54898 | 19340 ft | 375 kts | 162° |
| 2026-05-07 18:31 | 46.04888 | 15.56315 | 18848 ft | 373 kts | 161° |
| 2026-05-07 18:31 | 46.02495 | 15.57714 | 18364 ft | 370 kts | 161° |
| 2026-05-07 18:31 | 46.00127 | 15.59096 | 17887 ft | 368 kts | 161° |
| 2026-05-07 18:32 | 45.97761 | 15.60479 | 17412 ft | 366 kts | 161° |
| 2026-05-07 18:32 | 45.95414 | 15.61851 | 16944 ft | 364 kts | 161° |
| 2026-05-07 18:32 | 45.93091 | 15.63206 | 16469 ft | 363 kts | 161° |
| 2026-05-07 18:32 | 45.90769 | 15.64558 | 15971 ft | 362 kts | 161° |
| 2026-05-07 18:33 | 45.88412 | 15.65929 | 15479 ft | 361 kts | 161° |
| 2026-05-07 18:33 | 45.86116 | 15.67306 | 15000 ft | 361 kts | 158° |
| 2026-05-07 18:33 | 45.83935 | 15.69101 | 14508 ft | 363 kts | 149° |
| 2026-05-07 18:33 | 45.81977 | 15.71347 | 14036 ft | 364 kts | 141° |
| 2026-05-07 18:34 | 45.80137 | 15.73816 | 13554 ft | 362 kts | 139° |
| 2026-05-07 18:34 | 45.78316 | 15.76321 | 13061 ft | 361 kts | 139° |
| 2026-05-07 18:34 | 45.76519 | 15.78784 | 12584 ft | 359 kts | 139° |
| 2026-05-07 18:34 | 45.74908 | 15.81461 | 12067 ft | 361 kts | 121° |
| 2026-05-07 18:35 | 45.74168 | 15.84870 | 11574 ft | 362 kts | 94° |
| 2026-05-07 18:35 | 45.74524 | 15.88387 | 11087 ft | 359 kts | 69° |
| 2026-05-07 18:35 | 45.75832 | 15.91364 | 10697 ft | 350 kts | 46° |
| 2026-05-07 18:35 | 45.77496 | 15.93769 | 10521 ft | 337 kts | 44° |
| 2026-05-07 18:36 | 45.79133 | 15.96116 | 10350 ft | 324 kts | 44° |
| 2026-05-07 18:36 | 45.80662 | 15.98365 | 10194 ft | 313 kts | 45° |
| 2026-05-07 18:36 | 45.82135 | 16.00573 | 10052 ft | 301 kts | 45° |
| 2026-05-07 18:36 | 45.83569 | 16.02744 | 9842 ft | 294 kts | 45° |
| 2026-05-07 18:37 | 45.84951 | 16.04843 | 9501 ft | 293 kts | 45° |
| 2026-05-07 18:37 | 45.86344 | 16.06966 | 9142 ft | 292 kts | 45° |
| 2026-05-07 18:37 | 45.87737 | 16.09089 | 8791 ft | 290 kts | 45° |
| 2026-05-07 18:37 | 45.89114 | 16.11190 | 8479 ft | 289 kts | 45° |
| 2026-05-07 18:38 | 45.90477 | 16.13272 | 8123 ft | 288 kts | 45° |
| 2026-05-07 18:38 | 45.91846 | 16.15366 | 7782 ft | 287 kts | 45° |
| 2026-05-07 18:38 | 45.93202 | 16.17439 | 7450 ft | 285 kts | 45° |
| 2026-05-07 18:38 | 45.94556 | 16.19512 | 7195 ft | 280 kts | 45° |
| 2026-05-07 18:39 | 45.95865 | 16.21519 | 7032 ft | 272 kts | 45° |
| 2026-05-07 18:39 | 45.97131 | 16.23461 | 6883 ft | 263 kts | 45° |
| 2026-05-07 18:39 | 45.98363 | 16.25349 | 6591 ft | 261 kts | 45° |
| 2026-05-07 18:39 | 45.99604 | 16.27251 | 6301 ft | 259 kts | 46° |
| 2026-05-07 18:40 | 46.00785 | 16.29186 | 5985 ft | 259 kts | 57° |
| 2026-05-07 18:40 | 46.01290 | 16.31616 | 5655 ft | 256 kts | 95° |
| 2026-05-07 18:40 | 46.00720 | 16.33964 | 5359 ft | 252 kts | 130° |
| 2026-05-07 18:40 | 45.99467 | 16.35694 | 5112 ft | 247 kts | 142° |
| 2026-05-07 18:41 | 45.98196 | 16.37264 | 4893 ft | 241 kts | 143° |
| 2026-05-07 18:41 | 45.96779 | 16.38413 | 4605 ft | 231 kts | 172° |
| 2026-05-07 18:41 | 45.95232 | 16.38286 | 4332 ft | 220 kts | 202° |
| 2026-05-07 18:41 | 45.93961 | 16.37136 | 4066 ft | 214 kts | 224° |
| 2026-05-07 18:42 | 45.92965 | 16.35572 | 3819 ft | 210 kts | 230° |
| 2026-05-07 18:42 | 45.92039 | 16.33983 | 3608 ft | 205 kts | 230° |
| 2026-05-07 18:42 | 45.91134 | 16.32478 | 3515 ft | 196 kts | 228° |
| 2026-05-07 18:42 | 45.90224 | 16.31025 | 3485 ft | 196 kts | 227° |
| 2026-05-07 18:43 | 45.89310 | 16.29609 | 3477 ft | 188 kts | 226° |
| 2026-05-07 18:43 | 45.88443 | 16.28290 | 3555 ft | 177 kts | 226° |
| 2026-05-07 18:43 | 45.87607 | 16.27029 | 3517 ft | 176 kts | 226° |
| 2026-05-07 18:43 | 45.86759 | 16.25755 | 3502 ft | 175 kts | 226° |
| 2026-05-07 18:44 | 45.85921 | 16.24496 | 3370 ft | 175 kts | 226° |
| 2026-05-07 18:44 | 45.85087 | 16.23242 | 3136 ft | 173 kts | 226° |
| 2026-05-07 18:44 | 45.84259 | 16.21993 | 2906 ft | 173 kts | 226° |
| 2026-05-07 18:44 | 45.83450 | 16.20772 | 2691 ft | 160 kts | 226° |
| 2026-05-07 18:45 | 45.82715 | 16.19659 | 2475 ft | 153 kts | 226° |
| 2026-05-07 18:45 | 45.81984 | 16.18552 | 2279 ft | 153 kts | 225° |
| 2026-05-07 18:45 | 45.81261 | 16.17456 | 2076 ft | 145 kts | 225° |
| 2026-05-07 18:45 | 45.80603 | 16.16458 | 1865 ft | 131 kts | 225° |
| 2026-05-07 18:46 | 45.79988 | 16.15524 | 1694 ft | 127 kts | 225° |
| 2026-05-07 18:46 | 45.79382 | 16.14606 | 1543 ft | 127 kts | 225° |
| 2026-05-07 18:46 | 45.78780 | 16.13686 | 1362 ft | 128 kts | 225° |
| 2026-05-07 18:46 | 45.78171 | 16.12754 | 1170 ft | 128 kts | 225° |
| 2026-05-07 18:47 | 45.77554 | 16.11842 | 1026 ft | 128 kts | 224° |
| 2026-05-07 18:47 | 45.76938 | 16.10903 | 871 ft | 129 kts | 225° |
| 2026-05-07 18:47 | 45.76321 | 16.09964 | 724 ft | 129 kts | 225° |
| 2026-05-07 18:47 | 45.75705 | 16.09032 | 554 ft | 130 kts | 226° |
| 2026-05-07 18:48 | 45.75086 | 16.08087 | 391 ft | 130 kts | 226° |
| 2026-05-07 18:48 | 45.74518 | 16.07229 | 362 ft | 97 kts | 226° |
| 2026-05-07 18:48 | 45.74167 | 16.06685 | 362 ft | 59 kts | 226° |
| 2026-05-07 18:48 | 45.73947 | 16.06353 | 362 ft | 30 kts | 226° |
| 2026-05-07 18:49 | 45.73854 | 16.06251 | 362 ft | 13 kts | 161° |
| 2026-05-07 18:49 | 45.73783 | 16.06340 | 362 ft | 14 kts | 137° |
| 2026-05-07 18:49 | 45.73754 | 16.06449 | 362 ft | 13 kts | 48° |
| 2026-05-07 18:49 | 45.73824 | 16.06555 | 362 ft | 16 kts | 47° |
| 2026-05-07 18:50 | 45.73906 | 16.06681 | 362 ft | 18 kts | 47° |
| 2026-05-07 18:50 | 45.73998 | 16.06820 | 362 ft | 20 kts | 47° |
| 2026-05-07 18:50 | 45.74099 | 16.06976 | 362 ft | 22 kts | 47° |
| 2026-05-07 18:50 | 45.74204 | 16.07135 | 362 ft | 21 kts | 46° |
| 2026-05-07 18:51 | 45.74309 | 16.07293 | 362 ft | 22 kts | 47° |
| 2026-05-07 18:51 | 45.74416 | 16.07458 | 362 ft | 22 kts | 47° |
| 2026-05-07 18:51 | 45.74523 | 16.07618 | 362 ft | 16 kts | 47° |
| 2026-05-07 18:51 | 45.74504 | 16.07747 | 362 ft | 16 kts | 137° |
| 2026-05-07 18:52 | 45.74419 | 16.07858 | 362 ft | 16 kts | 136° |
| 2026-05-07 18:52 | 45.74324 | 16.07867 | 362 ft | 16 kts | 227° |
| 2026-05-07 18:52 | 45.74264 | 16.07801 | 362 ft | 6 kts | 160° |
| 2026-05-07 18:52 | 45.74224 | 16.07850 | 362 ft | 8 kts | 138° |
| 2026-05-07 18:53 | 45.74208 | 16.07871 | 362 ft | 0 kts | 136° |